sensor_id;sensor_type;location;lat;lon;timestamp;P1;durP1;ratioP1;P2;durP2;ratioP2
53618;SDS011;39505;53.040;18.488;2022-12-18T00:00:10;86.72;;;42.42;;
53618;SDS011;39505;53.040;18.488;2022-12-18T00:00:23;88.05;;;42.67;;
53618;SDS011;39505;53.040;18.488;2022-12-18T00:00:56;87.60;;;42.58;;
53618;SDS011;39505;53.040;18.488;2022-12-18T00:01:27;87.38;;;42.28;;
53618;SDS011;39505;53.040;18.488;2022-12-18T00:01:44;87.35;;;41.85;;
53618;SDS011;39505;53.040;18.488;2022-12-18T00:01:57;85.18;;;40.95;;
53618;SDS011;39505;53.040;18.488;2022-12-18T00:02:11;81.10;;;39.95;;
53618;SDS011;39505;53.040;18.488;2022-12-18T00:02:24;81.60;;;39.88;;
53618;SDS011;39505;53.040;18.488;2022-12-18T00:02:36;83.32;;;40.35;;
53618;SDS011;39505;53.040;18.488;2022-12-18T00:02:51;79.07;;;38.72;;
53618;SDS011;39505;53.040;18.488;2022-12-18T00:03:04;77.70;;;38.20;;
53618;SDS011;39505;53.040;18.488;2022-12-18T00:03:17;77.72;;;37.90;;
53618;SDS011;39505;53.040;18.488;2022-12-18T00:03:30;77.97;;;37.65;;
53618;SDS011;39505;53.040;18.488;2022-12-18T00:03:43;80.85;;;38.50;;
53618;SDS011;39505;53.040;18.488;2022-12-18T00:03:57;83.28;;;38.70;;
53618;SDS011;39505;53.040;18.488;2022-12-18T00:04:14;83.18;;;38.47;;
53618;SDS011;39505;53.040;18.488;2022-12-18T00:04:32;81.03;;;38.88;;
53618;SDS011;39505;53.040;18.488;2022-12-18T00:04:44;82.28;;;39.10;;
53618;SDS011;39505;53.040;18.488;2022-12-18T00:04:57;81.13;;;39.70;;
53618;SDS011;39505;53.040;18.488;2022-12-18T00:05:10;80.43;;;39.80;;
53618;SDS011;39505;53.040;18.488;2022-12-18T00:05:23;78.95;;;39.05;;
53618;SDS011;39505;53.040;18.488;2022-12-18T00:05:36;77.93;;;38.88;;
53618;SDS011;39505;53.040;18.488;2022-12-18T00:05:48;80.90;;;39.78;;
53618;SDS011;39505;53.040;18.488;2022-12-18T00:06:03;82.60;;;39.78;;
53618;SDS011;39505;53.040;18.488;2022-12-18T00:06:15;82.90;;;39.50;;
53618;SDS011;39505;53.040;18.488;2022-12-18T00:06:29;83.97;;;39.45;;
53618;SDS011;39505;53.040;18.488;2022-12-18T00:06:42;86.10;;;40.03;;
53618;SDS011;39505;53.040;18.488;2022-12-18T00:06:55;85.68;;;40.40;;
53618;SDS011;39505;53.040;18.488;2022-12-18T00:07:08;86.97;;;40.83;;
53618;SDS011;39505;53.040;18.488;2022-12-18T00:07:21;88.68;;;41.58;;
53618;SDS011;39505;53.040;18.488;2022-12-18T00:07:34;87.18;;;42.05;;
53618;SDS011;39505;53.040;18.488;2022-12-18T00:07:47;86.20;;;42.10;;
53618;SDS011;39505;53.040;18.488;2022-12-18T00:08:00;88.00;;;42.38;;
53618;SDS011;39505;53.040;18.488;2022-12-18T00:08:13;85.28;;;41.33;;
53618;SDS011;39505;53.040;18.488;2022-12-18T00:08:26;83.72;;;41.38;;
53618;SDS011;39505;53.040;18.488;2022-12-18T00:08:39;86.13;;;41.95;;
53618;SDS011;39505;53.040;18.488;2022-12-18T00:08:52;87.55;;;41.72;;
53618;SDS011;39505;53.040;18.488;2022-12-18T00:09:05;83.32;;;41.35;;
53618;SDS011;39505;53.040;18.488;2022-12-18T00:09:18;82.70;;;41.70;;
53618;SDS011;39505;53.040;18.488;2022-12-18T00:09:31;87.82;;;42.10;;
53618;SDS011;39505;53.040;18.488;2022-12-18T00:09:51;87.22;;;41.15;;
53618;SDS011;39505;53.040;18.488;2022-12-18T00:10:04;83.45;;;40.53;;
53618;SDS011;39505;53.040;18.488;2022-12-18T00:10:19;87.07;;;41.78;;
53618;SDS011;39505;53.040;18.488;2022-12-18T00:10:31;87.68;;;42.83;;
53618;SDS011;39505;53.040;18.488;2022-12-18T00:10:44;87.95;;;43.17;;
53618;SDS011;39505;53.040;18.488;2022-12-18T00:11:02;87.95;;;43.13;;
53618;SDS011;39505;53.040;18.488;2022-12-18T00:11:19;87.90;;;42.65;;
53618;SDS011;39505;53.040;18.488;2022-12-18T00:11:32;90.85;;;43.65;;
53618;SDS011;39505;53.040;18.488;2022-12-18T00:11:45;91.00;;;45.28;;
53618;SDS011;39505;53.040;18.488;2022-12-18T00:11:58;94.90;;;46.25;;
53618;SDS011;39505;53.040;18.488;2022-12-18T00:12:26;100.45;;;46.95;;
53618;SDS011;39505;53.040;18.488;2022-12-18T00:12:41;104.70;;;48.58;;
53618;SDS011;39505;53.040;18.488;2022-12-18T00:12:53;108.30;;;50.55;;
53618;SDS011;39505;53.040;18.488;2022-12-18T00:13:06;114.47;;;53.60;;
53618;SDS011;39505;53.040;18.488;2022-12-18T00:13:21;118.50;;;55.58;;
53618;SDS011;39505;53.040;18.488;2022-12-18T00:13:34;124.90;;;59.15;;
53618;SDS011;39505;53.040;18.488;2022-12-18T00:13:49;129.52;;;61.64;;
53618;SDS011;39505;53.040;18.488;2022-12-18T00:14:02;129.25;;;61.85;;
53618;SDS011;39505;53.040;18.488;2022-12-18T00:14:14;129.90;;;62.05;;
53618;SDS011;39505;53.040;18.488;2022-12-18T00:14:27;132.45;;;61.63;;
53618;SDS011;39505;53.040;18.488;2022-12-18T00:14:40;135.45;;;62.47;;
53618;SDS011;39505;53.040;18.488;2022-12-18T00:14:54;134.02;;;63.05;;
53618;SDS011;39505;53.040;18.488;2022-12-18T00:15:07;132.82;;;62.38;;
53618;SDS011;39505;53.040;18.488;2022-12-18T00:15:21;136.43;;;62.30;;
53618;SDS011;39505;53.040;18.488;2022-12-18T00:15:34;138.73;;;63.55;;
53618;SDS011;39505;53.040;18.488;2022-12-18T00:15:46;133.00;;;62.70;;
53618;SDS011;39505;53.040;18.488;2022-12-18T00:16:01;131.88;;;61.75;;
53618;SDS011;39505;53.040;18.488;2022-12-18T00:16:15;131.27;;;61.22;;
53618;SDS011;39505;53.040;18.488;2022-12-18T00:16:30;130.32;;;61.67;;
53618;SDS011;39505;53.040;18.488;2022-12-18T00:16:45;130.75;;;61.55;;
53618;SDS011;39505;53.040;18.488;2022-12-18T00:16:58;127.50;;;61.30;;
53618;SDS011;39505;53.040;18.488;2022-12-18T00:17:12;125.00;;;60.58;;
53618;SDS011;39505;53.040;18.488;2022-12-18T00:17:25;125.38;;;59.25;;
53618;SDS011;39505;53.040;18.488;2022-12-18T00:17:37;124.90;;;58.58;;
53618;SDS011;39505;53.040;18.488;2022-12-18T00:17:51;122.30;;;57.15;;
53618;SDS011;39505;53.040;18.488;2022-12-18T00:18:04;119.00;;;55.58;;
53618;SDS011;39505;53.040;18.488;2022-12-18T00:18:16;120.03;;;55.03;;
53618;SDS011;39505;53.040;18.488;2022-12-18T00:18:31;120.90;;;55.17;;
53618;SDS011;39505;53.040;18.488;2022-12-18T00:18:44;117.13;;;54.80;;
53618;SDS011;39505;53.040;18.488;2022-12-18T00:19:00;115.20;;;54.25;;
53618;SDS011;39505;53.040;18.488;2022-12-18T00:19:13;115.43;;;54.08;;
53618;SDS011;39505;53.040;18.488;2022-12-18T00:19:27;116.60;;;54.13;;
53618;SDS011;39505;53.040;18.488;2022-12-18T00:19:40;119.05;;;55.00;;
53618;SDS011;39505;53.040;18.488;2022-12-18T00:19:53;123.38;;;56.47;;
53618;SDS011;39505;53.040;18.488;2022-12-18T00:20:06;123.25;;;56.83;;
53618;SDS011;39505;53.040;18.488;2022-12-18T00:20:19;121.10;;;56.55;;
53618;SDS011;39505;53.040;18.488;2022-12-18T00:20:37;123.32;;;57.88;;
53618;SDS011;39505;53.040;18.488;2022-12-18T00:20:52;122.60;;;57.65;;
53618;SDS011;39505;53.040;18.488;2022-12-18T00:21:06;122.85;;;57.38;;
53618;SDS011;39505;53.040;18.488;2022-12-18T00:21:20;125.57;;;57.53;;
53618;SDS011;39505;53.040;18.488;2022-12-18T00:21:33;125.95;;;57.00;;
53618;SDS011;39505;53.040;18.488;2022-12-18T00:21:46;124.18;;;56.50;;
53618;SDS011;39505;53.040;18.488;2022-12-18T00:21:59;122.68;;;56.55;;
53618;SDS011;39505;53.040;18.488;2022-12-18T00:22:12;121.20;;;57.03;;
53618;SDS011;39505;53.040;18.488;2022-12-18T00:22:25;120.50;;;57.40;;
53618;SDS011;39505;53.040;18.488;2022-12-18T00:22:38;119.10;;;57.20;;
53618;SDS011;39505;53.040;18.488;2022-12-18T00:22:50;118.57;;;56.72;;
53618;SDS011;39505;53.040;18.488;2022-12-18T00:23:03;118.88;;;56.20;;
53618;SDS011;39505;53.040;18.488;2022-12-18T00:23:16;117.63;;;54.95;;
53618;SDS011;39505;53.040;18.488;2022-12-18T00:23:29;118.90;;;54.80;;
53618;SDS011;39505;53.040;18.488;2022-12-18T00:23:45;118.60;;;55.35;;
53618;SDS011;39505;53.040;18.488;2022-12-18T00:23:59;120.80;;;55.13;;
53618;SDS011;39505;53.040;18.488;2022-12-18T00:24:12;121.05;;;55.28;;
53618;SDS011;39505;53.040;18.488;2022-12-18T00:24:25;123.70;;;56.00;;
53618;SDS011;39505;53.040;18.488;2022-12-18T00:24:38;123.25;;;56.05;;
53618;SDS011;39505;53.040;18.488;2022-12-18T00:24:51;117.60;;;54.33;;
53618;SDS011;39505;53.040;18.488;2022-12-18T00:25:04;116.05;;;54.35;;
53618;SDS011;39505;53.040;18.488;2022-12-18T00:25:18;124.28;;;58.00;;
53618;SDS011;39505;53.040;18.488;2022-12-18T00:25:32;132.60;;;61.55;;
53618;SDS011;39505;53.040;18.488;2022-12-18T00:25:44;133.45;;;62.75;;
53618;SDS011;39505;53.040;18.488;2022-12-18T00:25:58;133.73;;;61.92;;
53618;SDS011;39505;53.040;18.488;2022-12-18T00:26:15;131.02;;;61.55;;
53618;SDS011;39505;53.040;18.488;2022-12-18T00:26:29;123.53;;;58.88;;
53618;SDS011;39505;53.040;18.488;2022-12-18T00:26:43;118.35;;;56.47;;
53618;SDS011;39505;53.040;18.488;2022-12-18T00:26:57;116.97;;;56.35;;
53618;SDS011;39505;53.040;18.488;2022-12-18T00:27:09;117.40;;;56.83;;
53618;SDS011;39505;53.040;18.488;2022-12-18T00:27:22;116.38;;;56.50;;
53618;SDS011;39505;53.040;18.488;2022-12-18T00:27:34;117.30;;;56.63;;
53618;SDS011;39505;53.040;18.488;2022-12-18T00:27:47;118.03;;;56.42;;
53618;SDS011;39505;53.040;18.488;2022-12-18T00:28:00;116.82;;;56.83;;
53618;SDS011;39505;53.040;18.488;2022-12-18T00:28:12;118.45;;;57.00;;
53618;SDS011;39505;53.040;18.488;2022-12-18T00:28:25;121.85;;;56.85;;
53618;SDS011;39505;53.040;18.488;2022-12-18T00:28:38;124.13;;;57.05;;
53618;SDS011;39505;53.040;18.488;2022-12-18T00:28:52;122.68;;;56.28;;
53618;SDS011;39505;53.040;18.488;2022-12-18T00:29:06;121.03;;;56.35;;
53618;SDS011;39505;53.040;18.488;2022-12-18T00:29:20;118.07;;;56.38;;
53618;SDS011;39505;53.040;18.488;2022-12-18T00:29:32;114.45;;;56.00;;
53618;SDS011;39505;53.040;18.488;2022-12-18T00:29:45;116.97;;;56.45;;
53618;SDS011;39505;53.040;18.488;2022-12-18T00:30:00;116.68;;;56.30;;
53618;SDS011;39505;53.040;18.488;2022-12-18T00:30:13;113.68;;;55.20;;
53618;SDS011;39505;53.040;18.488;2022-12-18T00:30:26;113.75;;;55.38;;
53618;SDS011;39505;53.040;18.488;2022-12-18T00:30:38;112.55;;;55.05;;
53618;SDS011;39505;53.040;18.488;2022-12-18T00:30:58;108.97;;;54.28;;
53618;SDS011;39505;53.040;18.488;2022-12-18T00:31:13;109.72;;;53.78;;
53618;SDS011;39505;53.040;18.488;2022-12-18T00:31:26;113.47;;;54.50;;
53618;SDS011;39505;53.040;18.488;2022-12-18T00:31:39;114.68;;;54.50;;
53618;SDS011;39505;53.040;18.488;2022-12-18T00:31:54;111.88;;;53.67;;
53618;SDS011;39505;53.040;18.488;2022-12-18T00:32:07;109.18;;;52.67;;
53618;SDS011;39505;53.040;18.488;2022-12-18T00:32:20;108.40;;;52.08;;
53618;SDS011;39505;53.040;18.488;2022-12-18T00:32:33;106.93;;;52.55;;
53618;SDS011;39505;53.040;18.488;2022-12-18T00:32:45;107.25;;;52.92;;
53618;SDS011;39505;53.040;18.488;2022-12-18T00:32:58;106.25;;;52.47;;
53618;SDS011;39505;53.040;18.488;2022-12-18T00:33:10;102.90;;;51.35;;
53618;SDS011;39505;53.040;18.488;2022-12-18T00:33:24;104.50;;;51.45;;
53618;SDS011;39505;53.040;18.488;2022-12-18T00:33:37;105.97;;;51.75;;
53618;SDS011;39505;53.040;18.488;2022-12-18T00:33:51;108.95;;;52.78;;
53618;SDS011;39505;53.040;18.488;2022-12-18T00:34:06;110.85;;;52.83;;
53618;SDS011;39505;53.040;18.488;2022-12-18T00:34:21;107.00;;;52.00;;
53618;SDS011;39505;53.040;18.488;2022-12-18T00:34:34;106.05;;;51.72;;
53618;SDS011;39505;53.040;18.488;2022-12-18T00:34:48;109.07;;;51.63;;
53618;SDS011;39505;53.040;18.488;2022-12-18T00:35:00;113.28;;;52.50;;
53618;SDS011;39505;53.040;18.488;2022-12-18T00:35:13;115.60;;;53.38;;
53618;SDS011;39505;53.040;18.488;2022-12-18T00:35:25;111.35;;;52.20;;
53618;SDS011;39505;53.040;18.488;2022-12-18T00:35:38;110.43;;;51.92;;
53618;SDS011;39505;53.040;18.488;2022-12-18T00:35:51;111.18;;;52.03;;
53618;SDS011;39505;53.040;18.488;2022-12-18T00:36:04;114.25;;;52.60;;
53618;SDS011;39505;53.040;18.488;2022-12-18T00:36:20;112.85;;;52.42;;
53618;SDS011;39505;53.040;18.488;2022-12-18T00:36:34;113.70;;;52.53;;
53618;SDS011;39505;53.040;18.488;2022-12-18T00:36:47;114.82;;;53.25;;
53618;SDS011;39505;53.040;18.488;2022-12-18T00:37:00;114.03;;;52.35;;
53618;SDS011;39505;53.040;18.488;2022-12-18T00:37:13;113.45;;;51.30;;
53618;SDS011;39505;53.040;18.488;2022-12-18T00:37:31;111.40;;;50.50;;
53618;SDS011;39505;53.040;18.488;2022-12-18T00:37:46;109.40;;;50.30;;
53618;SDS011;39505;53.040;18.488;2022-12-18T00:37:59;109.25;;;50.22;;
53618;SDS011;39505;53.040;18.488;2022-12-18T00:38:11;114.07;;;50.90;;
53618;SDS011;39505;53.040;18.488;2022-12-18T00:38:25;122.60;;;52.60;;
53618;SDS011;39505;53.040;18.488;2022-12-18T00:38:38;128.02;;;53.97;;
53618;SDS011;39505;53.040;18.488;2022-12-18T00:38:51;123.30;;;53.85;;
53618;SDS011;39505;53.040;18.488;2022-12-18T00:39:06;121.07;;;53.08;;
53618;SDS011;39505;53.040;18.488;2022-12-18T00:39:20;121.25;;;52.13;;
53618;SDS011;39505;53.040;18.488;2022-12-18T00:39:33;120.65;;;52.97;;
53618;SDS011;39505;53.040;18.488;2022-12-18T00:39:47;122.82;;;54.15;;
53618;SDS011;39505;53.040;18.488;2022-12-18T00:40:00;121.25;;;53.85;;
53618;SDS011;39505;53.040;18.488;2022-12-18T00:40:13;112.15;;;51.00;;
53618;SDS011;39505;53.040;18.488;2022-12-18T00:40:25;109.13;;;49.33;;
53618;SDS011;39505;53.040;18.488;2022-12-18T00:40:39;112.60;;;49.53;;
53618;SDS011;39505;53.040;18.488;2022-12-18T00:40:52;115.68;;;50.08;;
53618;SDS011;39505;53.040;18.488;2022-12-18T00:41:04;115.80;;;50.22;;
53618;SDS011;39505;53.040;18.488;2022-12-18T00:41:18;111.07;;;48.47;;
53618;SDS011;39505;53.040;18.488;2022-12-18T00:41:45;105.05;;;46.03;;
53618;SDS011;39505;53.040;18.488;2022-12-18T00:42:17;93.63;;;43.20;;
53618;SDS011;39505;53.040;18.488;2022-12-18T00:42:48;93.88;;;42.75;;
53618;SDS011;39505;53.040;18.488;2022-12-18T00:43:09;92.93;;;43.13;;
53618;SDS011;39505;53.040;18.488;2022-12-18T00:43:22;94.97;;;43.53;;
53618;SDS011;39505;53.040;18.488;2022-12-18T00:43:35;95.78;;;43.33;;
53618;SDS011;39505;53.040;18.488;2022-12-18T00:43:49;97.07;;;43.35;;
53618;SDS011;39505;53.040;18.488;2022-12-18T00:44:01;95.65;;;42.80;;
53618;SDS011;39505;53.040;18.488;2022-12-18T00:44:16;93.45;;;42.38;;
53618;SDS011;39505;53.040;18.488;2022-12-18T00:44:30;94.82;;;42.35;;
53618;SDS011;39505;53.040;18.488;2022-12-18T00:44:42;97.90;;;43.85;;
53618;SDS011;39505;53.040;18.488;2022-12-18T00:44:56;101.60;;;45.60;;
53618;SDS011;39505;53.040;18.488;2022-12-18T00:45:10;106.20;;;47.03;;
53618;SDS011;39505;53.040;18.488;2022-12-18T00:45:24;113.57;;;49.88;;
53618;SDS011;39505;53.040;18.488;2022-12-18T00:45:38;122.28;;;52.75;;
53618;SDS011;39505;53.040;18.488;2022-12-18T00:45:52;125.78;;;53.70;;
53618;SDS011;39505;53.040;18.488;2022-12-18T00:46:05;125.70;;;53.25;;
53618;SDS011;39505;53.040;18.488;2022-12-18T00:46:18;126.00;;;53.08;;
53618;SDS011;39505;53.040;18.488;2022-12-18T00:46:32;126.28;;;53.47;;
53618;SDS011;39505;53.040;18.488;2022-12-18T00:46:45;133.88;;;55.08;;
53618;SDS011;39505;53.040;18.488;2022-12-18T00:46:59;139.23;;;56.70;;
53618;SDS011;39505;53.040;18.488;2022-12-18T00:47:11;141.77;;;58.05;;
53618;SDS011;39505;53.040;18.488;2022-12-18T00:47:24;142.95;;;58.15;;
53618;SDS011;39505;53.040;18.488;2022-12-18T00:47:37;140.10;;;58.13;;
53618;SDS011;39505;53.040;18.488;2022-12-18T00:47:49;133.30;;;57.35;;
53618;SDS011;39505;53.040;18.488;2022-12-18T00:48:02;133.80;;;57.75;;
53618;SDS011;39505;53.040;18.488;2022-12-18T00:48:16;135.40;;;58.47;;
53618;SDS011;39505;53.040;18.488;2022-12-18T00:48:29;134.15;;;58.53;;
53618;SDS011;39505;53.040;18.488;2022-12-18T00:48:41;134.90;;;58.75;;
53618;SDS011;39505;53.040;18.488;2022-12-18T00:48:54;146.85;;;60.92;;
53618;SDS011;39505;53.040;18.488;2022-12-18T00:49:07;156.07;;;63.05;;
53618;SDS011;39505;53.040;18.488;2022-12-18T00:49:20;153.86;;;63.14;;
53618;SDS011;39505;53.040;18.488;2022-12-18T00:49:33;147.38;;;61.58;;
53618;SDS011;39505;53.040;18.488;2022-12-18T00:49:46;148.27;;;60.83;;
53618;SDS011;39505;53.040;18.488;2022-12-18T00:49:59;153.07;;;63.22;;
53618;SDS011;39505;53.040;18.488;2022-12-18T00:50:12;155.73;;;64.85;;
53618;SDS011;39505;53.040;18.488;2022-12-18T00:50:25;151.52;;;63.63;;
53618;SDS011;39505;53.040;18.488;2022-12-18T00:50:38;147.85;;;61.70;;
53618;SDS011;39505;53.040;18.488;2022-12-18T00:50:50;146.43;;;61.05;;
53618;SDS011;39505;53.040;18.488;2022-12-18T00:51:03;146.35;;;61.03;;
53618;SDS011;39505;53.040;18.488;2022-12-18T00:51:16;148.70;;;61.67;;
53618;SDS011;39505;53.040;18.488;2022-12-18T00:51:30;149.27;;;61.78;;
53618;SDS011;39505;53.040;18.488;2022-12-18T00:51:43;149.63;;;61.30;;
53618;SDS011;39505;53.040;18.488;2022-12-18T00:51:56;150.82;;;62.15;;
53618;SDS011;39505;53.040;18.488;2022-12-18T00:52:08;152.88;;;63.97;;
53618;SDS011;39505;53.040;18.488;2022-12-18T00:52:21;156.98;;;66.68;;
53618;SDS011;39505;53.040;18.488;2022-12-18T00:52:34;160.15;;;67.93;;
53618;SDS011;39505;53.040;18.488;2022-12-18T00:52:48;166.95;;;69.35;;
53618;SDS011;39505;53.040;18.488;2022-12-18T00:53:00;166.40;;;70.07;;
53618;SDS011;39505;53.040;18.488;2022-12-18T00:53:13;165.13;;;69.90;;
53618;SDS011;39505;53.040;18.488;2022-12-18T00:53:26;164.20;;;69.55;;
53618;SDS011;39505;53.040;18.488;2022-12-18T00:53:38;162.38;;;68.80;;
53618;SDS011;39505;53.040;18.488;2022-12-18T00:53:52;161.80;;;68.63;;
53618;SDS011;39505;53.040;18.488;2022-12-18T00:54:05;157.68;;;67.60;;
53618;SDS011;39505;53.040;18.488;2022-12-18T00:54:17;153.35;;;66.38;;
53618;SDS011;39505;53.040;18.488;2022-12-18T00:54:31;154.50;;;66.05;;
53618;SDS011;39505;53.040;18.488;2022-12-18T00:54:44;155.07;;;66.32;;
53618;SDS011;39505;53.040;18.488;2022-12-18T00:54:56;156.07;;;66.40;;
53618;SDS011;39505;53.040;18.488;2022-12-18T00:55:17;156.77;;;66.47;;
53618;SDS011;39505;53.040;18.488;2022-12-18T00:55:30;160.45;;;67.28;;
53618;SDS011;39505;53.040;18.488;2022-12-18T00:55:44;159.10;;;66.53;;
53618;SDS011;39505;53.040;18.488;2022-12-18T00:55:57;151.13;;;64.65;;
53618;SDS011;39505;53.040;18.488;2022-12-18T00:56:10;147.32;;;63.63;;
53618;SDS011;39505;53.040;18.488;2022-12-18T00:56:23;148.88;;;63.83;;
53618;SDS011;39505;53.040;18.488;2022-12-18T00:56:36;152.05;;;62.88;;
53618;SDS011;39505;53.040;18.488;2022-12-18T00:56:59;141.52;;;59.22;;
53618;SDS011;39505;53.040;18.488;2022-12-18T00:57:12;133.75;;;57.17;;
53618;SDS011;39505;53.040;18.488;2022-12-18T00:57:24;137.25;;;57.80;;
53618;SDS011;39505;53.040;18.488;2022-12-18T00:57:37;136.98;;;57.72;;
53618;SDS011;39505;53.040;18.488;2022-12-18T00:57:51;132.90;;;57.00;;
53618;SDS011;39505;53.040;18.488;2022-12-18T00:58:05;128.63;;;55.47;;
53618;SDS011;39505;53.040;18.488;2022-12-18T00:58:17;124.28;;;54.28;;
53618;SDS011;39505;53.040;18.488;2022-12-18T00:58:30;124.93;;;53.00;;
53618;SDS011;39505;53.040;18.488;2022-12-18T00:58:43;124.82;;;53.22;;
53618;SDS011;39505;53.040;18.488;2022-12-18T00:58:56;127.00;;;53.85;;
53618;SDS011;39505;53.040;18.488;2022-12-18T00:59:08;125.32;;;53.33;;
53618;SDS011;39505;53.040;18.488;2022-12-18T00:59:21;121.03;;;52.50;;
53618;SDS011;39505;53.040;18.488;2022-12-18T00:59:35;118.72;;;51.42;;
53618;SDS011;39505;53.040;18.488;2022-12-18T00:59:47;115.43;;;50.72;;
53618;SDS011;39505;53.040;18.488;2022-12-18T01:00:00;117.32;;;51.25;;
53618;SDS011;39505;53.040;18.488;2022-12-18T01:00:15;116.45;;;50.47;;
53618;SDS011;39505;53.040;18.488;2022-12-18T01:00:29;113.63;;;48.65;;
53618;SDS011;39505;53.040;18.488;2022-12-18T01:00:41;111.57;;;47.60;;
53618;SDS011;39505;53.040;18.488;2022-12-18T01:00:54;109.60;;;46.08;;
53618;SDS011;39505;53.040;18.488;2022-12-18T01:01:07;106.38;;;44.38;;
53618;SDS011;39505;53.040;18.488;2022-12-18T01:01:20;103.80;;;44.88;;
53618;SDS011;39505;53.040;18.488;2022-12-18T01:01:34;102.35;;;45.25;;
53618;SDS011;39505;53.040;18.488;2022-12-18T01:01:47;101.10;;;44.45;;
53618;SDS011;39505;53.040;18.488;2022-12-18T01:02:00;101.40;;;44.67;;
53618;SDS011;39505;53.040;18.488;2022-12-18T01:02:12;99.85;;;43.85;;
53618;SDS011;39505;53.040;18.488;2022-12-18T01:02:25;100.50;;;44.85;;
53618;SDS011;39505;53.040;18.488;2022-12-18T01:02:38;103.80;;;45.92;;
53618;SDS011;39505;53.040;18.488;2022-12-18T01:02:52;107.13;;;45.22;;
53618;SDS011;39505;53.040;18.488;2022-12-18T01:03:05;105.20;;;43.88;;
53618;SDS011;39505;53.040;18.488;2022-12-18T01:03:19;100.18;;;43.15;;
53618;SDS011;39505;53.040;18.488;2022-12-18T01:03:31;98.63;;;42.67;;
53618;SDS011;39505;53.040;18.488;2022-12-18T01:03:44;102.88;;;43.05;;
53618;SDS011;39505;53.040;18.488;2022-12-18T01:03:59;105.55;;;43.25;;
53618;SDS011;39505;53.040;18.488;2022-12-18T01:04:12;103.35;;;43.10;;
53618;SDS011;39505;53.040;18.488;2022-12-18T01:04:26;99.00;;;42.67;;
53618;SDS011;39505;53.040;18.488;2022-12-18T01:04:38;97.13;;;42.38;;
53618;SDS011;39505;53.040;18.488;2022-12-18T01:04:51;96.82;;;42.22;;
53618;SDS011;39505;53.040;18.488;2022-12-18T01:05:04;98.28;;;42.13;;
53618;SDS011;39505;53.040;18.488;2022-12-18T01:05:17;100.03;;;42.28;;
53618;SDS011;39505;53.040;18.488;2022-12-18T01:05:30;99.25;;;41.75;;
53618;SDS011;39505;53.040;18.488;2022-12-18T01:05:43;96.75;;;42.35;;
53618;SDS011;39505;53.040;18.488;2022-12-18T01:05:56;99.65;;;43.05;;
53618;SDS011;39505;53.040;18.488;2022-12-18T01:06:10;101.25;;;43.25;;
53618;SDS011;39505;53.040;18.488;2022-12-18T01:06:24;100.07;;;42.63;;
53618;SDS011;39505;53.040;18.488;2022-12-18T01:06:37;98.13;;;42.42;;
53618;SDS011;39505;53.040;18.488;2022-12-18T01:06:51;96.90;;;42.78;;
53618;SDS011;39505;53.040;18.488;2022-12-18T01:07:03;95.32;;;42.90;;
53618;SDS011;39505;53.040;18.488;2022-12-18T01:07:16;94.95;;;43.17;;
53618;SDS011;39505;53.040;18.488;2022-12-18T01:07:30;98.53;;;44.15;;
53618;SDS011;39505;53.040;18.488;2022-12-18T01:07:42;100.85;;;44.17;;
53618;SDS011;39505;53.040;18.488;2022-12-18T01:07:55;101.75;;;43.92;;
53618;SDS011;39505;53.040;18.488;2022-12-18T01:08:08;100.15;;;43.67;;
53618;SDS011;39505;53.040;18.488;2022-12-18T01:08:21;98.75;;;43.90;;
53618;SDS011;39505;53.040;18.488;2022-12-18T01:08:34;100.10;;;44.58;;
53618;SDS011;39505;53.040;18.488;2022-12-18T01:08:47;108.93;;;45.92;;
53618;SDS011;39505;53.040;18.488;2022-12-18T01:09:00;113.80;;;46.60;;
53618;SDS011;39505;53.040;18.488;2022-12-18T01:09:14;108.88;;;46.53;;
53618;SDS011;39505;53.040;18.488;2022-12-18T01:09:27;107.40;;;46.67;;
53618;SDS011;39505;53.040;18.488;2022-12-18T01:09:39;109.53;;;46.17;;
53618;SDS011;39505;53.040;18.488;2022-12-18T01:09:52;108.03;;;45.95;;
53618;SDS011;39505;53.040;18.488;2022-12-18T01:10:05;105.88;;;45.60;;
53618;SDS011;39505;53.040;18.488;2022-12-18T01:10:19;105.07;;;45.38;;
53618;SDS011;39505;53.040;18.488;2022-12-18T01:10:32;106.18;;;46.17;;
53618;SDS011;39505;53.040;18.488;2022-12-18T01:10:46;105.20;;;46.17;;
53618;SDS011;39505;53.040;18.488;2022-12-18T01:10:58;107.13;;;45.75;;
53618;SDS011;39505;53.040;18.488;2022-12-18T01:11:11;105.38;;;46.00;;
53618;SDS011;39505;53.040;18.488;2022-12-18T01:11:26;103.40;;;46.35;;
53618;SDS011;39505;53.040;18.488;2022-12-18T01:11:39;105.10;;;46.65;;
53618;SDS011;39505;53.040;18.488;2022-12-18T01:11:52;104.25;;;46.58;;
53618;SDS011;39505;53.040;18.488;2022-12-18T01:12:05;103.93;;;46.03;;
53618;SDS011;39505;53.040;18.488;2022-12-18T01:12:19;102.85;;;45.55;;
53618;SDS011;39505;53.040;18.488;2022-12-18T01:12:32;106.07;;;45.72;;
53618;SDS011;39505;53.040;18.488;2022-12-18T01:12:45;105.85;;;46.10;;
53618;SDS011;39505;53.040;18.488;2022-12-18T01:12:58;105.88;;;47.03;;
53618;SDS011;39505;53.040;18.488;2022-12-18T01:13:10;102.47;;;47.78;;
53618;SDS011;39505;53.040;18.488;2022-12-18T01:13:23;101.95;;;47.40;;
53618;SDS011;39505;53.040;18.488;2022-12-18T01:13:35;101.35;;;46.25;;
53618;SDS011;39505;53.040;18.488;2022-12-18T01:13:49;100.15;;;45.53;;
53618;SDS011;39505;53.040;18.488;2022-12-18T01:14:02;98.18;;;45.38;;
53618;SDS011;39505;53.040;18.488;2022-12-18T01:14:16;97.90;;;45.08;;
53618;SDS011;39505;53.040;18.488;2022-12-18T01:14:28;97.93;;;44.80;;
53618;SDS011;39505;53.040;18.488;2022-12-18T01:14:41;96.93;;;44.58;;
53618;SDS011;39505;53.040;18.488;2022-12-18T01:14:53;98.05;;;44.10;;
53618;SDS011;39505;53.040;18.488;2022-12-18T01:15:06;98.68;;;44.15;;
53618;SDS011;39505;53.040;18.488;2022-12-18T01:15:22;97.97;;;44.42;;
53618;SDS011;39505;53.040;18.488;2022-12-18T01:15:35;94.97;;;44.25;;
53618;SDS011;39505;53.040;18.488;2022-12-18T01:15:48;91.75;;;44.03;;
53618;SDS011;39505;53.040;18.488;2022-12-18T01:16:01;92.72;;;43.80;;
53618;SDS011;39505;53.040;18.488;2022-12-18T01:16:14;89.88;;;42.72;;
53618;SDS011;39505;53.040;18.488;2022-12-18T01:16:29;87.90;;;41.25;;
53618;SDS011;39505;53.040;18.488;2022-12-18T01:16:43;92.75;;;41.78;;
53618;SDS011;39505;53.040;18.488;2022-12-18T01:16:56;94.80;;;42.10;;
53618;SDS011;39505;53.040;18.488;2022-12-18T01:17:08;92.95;;;41.58;;
53618;SDS011;39505;53.040;18.488;2022-12-18T01:17:21;91.88;;;41.47;;
53618;SDS011;39505;53.040;18.488;2022-12-18T01:17:34;88.47;;;41.22;;
53618;SDS011;39505;53.040;18.488;2022-12-18T01:17:46;83.18;;;40.40;;
53618;SDS011;39505;53.040;18.488;2022-12-18T01:17:59;85.45;;;40.72;;
53618;SDS011;39505;53.040;18.488;2022-12-18T01:18:12;86.93;;;40.50;;
53618;SDS011;39505;53.040;18.488;2022-12-18T01:18:25;85.72;;;40.17;;